Time;durP1;ratioP1;P1;durP2;ratioP2;P2;SDS_P1;SDS_P2;PMS_P1;PMS_P2;Temp;Humidity;BMP_temperature;BMP_pressure;BME280_temperature;BME280_humidity;BME280_pressure;Samples;Min_cycle;Max_cycle;Signal;HPM_P1;HPM_P2
2022/11/27 00:01:34;;;;;;;26.20;7.93;;;;;;;5.22;100.00;102513.88;4896439;29;20064;-80
2022/11/27 00:04:04;;;;;;;22.77;7.55;;;;;;;5.20;100.00;102519.84;4868583;29;20048;-79
2022/11/27 00:06:34;;;;;;;24.92;8.98;;;;;;;5.17;100.00;102525.78;4911806;29;20048;-79
2022/11/27 00:09:06;;;;;;;24.40;8.87;;;;;;;5.16;100.00;102515.25;4900157;29;20053;-79
2022/11/27 00:11:38;;;;;;;18.20;7.85;;;;;;;5.14;100.00;102515.19;4895152;29;20060;-78
2022/11/27 00:14:09;;;;;;;31.77;8.15;;;;;;;5.14;100.00;102517.81;4898178;29;20060;-79
2022/11/27 00:16:40;;;;;;;23.95;8.07;;;;;;;5.13;100.00;102507.25;4897049;29;20113;-79
2022/11/27 00:19:10;;;;;;;23.35;7.93;;;;;;;5.11;100.00;102509.78;4871730;29;20051;-78
2022/11/27 00:21:38;;;;;;;22.70;8.25;;;;;;;5.10;100.00;102507.97;4889331;29;20071;-79
2022/11/27 00:24:09;;;;;;;25.60;8.65;;;;;;;5.09;100.00;102487.91;4896453;29;20051;-78
2022/11/27 00:26:37;;;;;;;28.13;8.20;;;;;;;5.07;100.00;102493.06;4897358;29;20060;-78
2022/11/27 00:29:06;;;;;;;27.67;7.63;;;;;;;5.06;100.00;102493.84;4897413;29;20064;-79
2022/11/27 00:31:36;;;;;;;33.17;10.10;;;;;;;5.04;100.00;102485.03;4895323;29;20942;-79
2022/11/27 00:34:07;;;;;;;40.53;13.73;;;;;;;5.03;100.00;102498.94;4896061;29;20052;-79
2022/11/27 00:36:37;;;;;;;39.38;16.52;;;;;;;5.02;100.00;102489.28;4888800;29;20684;-78
2022/11/27 00:39:09;;;;;;;38.78;18.77;;;;;;;5.01;100.00;102487.50;4898629;29;20053;-78
2022/11/27 00:41:38;;;;;;;42.78;18.65;;;;;;;5.00;100.00;102493.53;4894083;29;20044;-78
2022/11/27 00:44:06;;;;;;;38.83;19.63;;;;;;;4.99;100.00;102496.06;4865670;29;20049;-79
2022/11/27 00:46:35;;;;;;;35.83;18.38;;;;;;;4.97;100.00;102484.66;4906449;29;20072;-79
2022/11/27 00:49:04;;;;;;;34.63;17.02;;;;;;;4.95;100.00;102478.44;4889215;29;20055;-79
2022/11/27 00:51:34;;;;;;;31.40;15.63;;;;;;;4.93;100.00;102482.69;4867454;29;20045;-78
2022/11/27 00:54:03;;;;;;;39.00;14.98;;;;;;;4.90;100.00;102478.22;4897849;29;20049;-79
2022/11/27 00:56:34;;;;;;;34.08;14.05;;;;;;;4.89;100.00;102468.56;4909665;29;20057;-79
2022/11/27 00:59:04;;;;;;;26.95;13.38;;;;;;;4.87;100.00;102468.47;4898904;29;20049;-78
2022/11/27 01:01:38;;;;;;;29.50;12.43;;;;;;;4.85;100.00;102472.72;4894436;29;20494;-79
2022/11/27 01:04:12;;;;;;;24.88;10.52;;;;;;;4.85;100.00;102474.47;4896633;29;20052;-78
2022/11/27 01:06:41;;;;;;;25.75;10.50;;;;;;;4.84;100.00;102478.78;4867241;29;20064;-78
2022/11/27 01:09:13;;;;;;;22.77;9.27;;;;;;;4.83;100.00;102486.53;4898237;29;20049;-78
2022/11/27 01:11:42;;;;;;;24.52;9.65;;;;;;;4.82;100.00;102484.72;4893746;29;20045;-78
2022/11/27 01:14:16;;;;;;;25.27;8.50;;;;;;;4.81;100.00;102482.97;4880178;29;20052;-77
2022/11/27 01:16:45;;;;;;;21.35;8.90;;;;;;;4.79;100.00;102482.88;4895099;29;20060;-78
2022/11/27 01:19:15;;;;;;;31.85;8.88;;;;;;;4.77;100.00;102479.28;4892208;29;20057;-79
2022/11/27 01:21:44;;;;;;;;;;;;;;;4.76;100.00;102477.47;4872025;29;20033;-78
2022/11/27 01:24:13;;;;;;;22.52;7.88;;;;;;;4.76;100.00;102480.09;4894092;29;19923;-78
2022/11/27 01:26:43;;;;;;;21.65;8.43;;;;;;;4.75;100.00;102477.41;4878767;29;20040;-80
2022/11/27 01:29:11;;;;;;;19.27;7.85;;;;;;;4.75;100.00;102473.06;4893767;29;20553;-78
2022/11/27 01:31:40;;;;;;;23.15;8.57;;;;;;;4.74;100.00;102459.94;4895474;29;20049;-77
2022/11/27 01:34:14;;;;;;;18.90;8.85;;;;;;;4.72;100.00;102451.13;4893162;29;20060;-77
2022/11/27 01:36:43;;;;;;;19.70;8.77;;;;;;;4.71;100.00;102459.75;4872997;29;20044;-79
2022/11/27 01:39:20;;;;;;;20.42;7.40;;;;;;;4.68;100.00;102456.16;4900047;29;20060;-77
2022/11/27 01:41:48;;;;;;;22.40;8.38;;;;;;;4.66;100.00;102468.25;4895372;29;20048;-77
2022/11/27 01:44:23;;;;;;;20.80;8.15;;;;;;;4.64;100.00;102459.44;4896015;29;20064;-79
2022/11/27 01:47:05;;;;;;;21.45;8.68;;;;;;;4.64;100.00;102456.84;4907742;29;20049;-79
2022/11/27 01:49:44;;;;;;;24.42;8.30;;;;;;;4.61;100.00;102456.69;4882744;29;20078;-79
2022/11/27 01:52:20;;;;;;;23.90;8.43;;;;;;;4.60;100.00;102452.28;4895875;29;20084;-79
2022/11/27 01:55:07;;;;;;;22.73;8.75;;;;;;;4.58;100.00;102451.28;4859120;29;20056;-78
2022/11/27 01:57:41;;;;;;;27.55;9.77;;;;;;;4.56;100.00;102450.31;4895705;29;20585;-79
2022/11/27 02:00:13;;;;;;;22.70;8.38;;;;;;;4.55;100.00;102443.28;4889019;29;20048;-79
2022/11/27 02:02:47;;;;;;;25.05;7.93;;;;;;;4.53;100.00;102433.59;4896783;29;20049;-78
2022/11/27 02:05:20;;;;;;;20.05;8.20;;;;;;;4.52;100.00;102435.31;4879923;29;20048;-78
2022/11/27 02:07:50;;;;;;;16.80;7.28;;;;;;;4.51;100.00;102435.22;4895579;29;20068;-78
2022/11/27 02:10:20;;;;;;;19.48;7.97;;;;;;;4.47;100.00;102434.16;4871358;29;20063;-78
2022/11/27 02:12:59;;;;;;;20.17;7.75;;;;;;;4.45;100.00;102426.25;4895060;29;20056;-78
2022/11/27 02:16:00;;;;;;;17.08;7.40;;;;;;;4.43;100.00;102433.09;4905059;29;20560;-78
2022/11/27 02:18:38;;;;;;;17.83;7.03;;;;;;;4.40;100.00;102430.31;4896609;29;20056;-78
2022/11/27 02:21:28;;;;;;;14.50;7.20;;;;;;;4.37;100.00;102421.44;4909619;29;20066;-79
2022/11/27 02:24:17;;;;;;;20.37;7.77;;;;;;;4.34;100.00;102423.88;4893931;29;20053;-79
2022/11/27 02:27:04;;;;;;;19.90;8.18;;;;;;;4.32;100.00;102422.91;4869255;29;20308;-79
2022/11/27 02:29:34;;;;;;;18.33;8.20;;;;;;;4.28;100.00;102411.41;4883761;29;20052;-79
2022/11/27 02:32:18;;;;;;;20.40;8.77;;;;;;;4.27;100.00;102422.63;4870697;29;20044;-79
2022/11/27 02:34:56;;;;;;;21.20;7.45;;;;;;;4.23;100.00;102405.91;4910295;29;20056;-79
2022/11/27 02:38:06;;;;;;;15.52;7.90;;;;;;;4.20;100.00;102404.88;4895406;29;20052;-80
2022/11/27 02:40:59;;;;;;;19.52;8.85;;;;;;;4.19;100.00;102405.66;4862540;29;20056;-78
2022/11/27 02:43:35;;;;;;;22.42;8.70;;;;;;;4.17;100.00;102399.47;4893158;29;20040;-79
2022/11/27 02:46:06;;;;;;;24.83;8.02;;;;;;;4.15;100.00;102402.00;4893812;29;20059;-78
2022/11/27 02:48:47;;;;;;;18.60;7.95;;;;;;;4.14;100.00;102399.31;4892483;29;20052;-78
2022/11/27 02:51:20;;;;;;;20.02;8.13;;;;;;;4.14;100.00;102396.69;4893201;29;20052;-78
2022/11/27 02:53:56;;;;;;;24.73;9.23;;;;;;;4.12;100.00;102380.06;4895459;29;20414;-78
2022/11/27 02:56:27;;;;;;;17.52;8.50;;;;;;;4.11;100.00;102384.38;4866781;29;20044;-77
2022/11/27 02:58:59;;;;;;;15.10;7.43;;;;;;;4.11;100.00;102387.00;4876678;29;20040;-79
2022/11/27 03:01:37;;;;;;;29.52;9.80;;;;;;;4.09;100.00;102372.97;4884471;29;20486;-79
2022/11/27 03:04:11;;;;;;;22.80;8.95;;;;;;;4.08;100.00;102374.69;4884115;29;20057;-78
2022/11/27 03:06:46;;;;;;;22.40;8.32;;;;;;;4.08;100.00;102377.31;4896104;29;20053;-79
2022/11/27 03:09:20;;;;;;;21.65;7.65;;;;;;;4.09;100.00;102365.16;4893203;29;20056;-79
2022/11/27 03:11:49;;;;;;;18.65;8.35;;;;;;;4.09;100.00;102367.75;4867489;29;20036;-79
2022/11/27 03:14:23;;;;;;;17.38;7.53;;;;;;;4.08;100.00;102369.47;4876737;29;20059;-77
2022/11/27 03:16:54;;;;;;;14.48;7.40;;;;;;;4.08;100.00;102374.69;4910225;29;20044;-79
2022/11/27 03:19:55;;;;;;;13.32;7.60;;;;;;;4.07;100.00;102372.88;4884478;29;20049;-78
2022/11/27 03:22:25;;;;;;;16.95;7.30;;;;;;;4.08;100.00;102369.47;4902643;29;20561;-80
2022/11/27 03:24:54;;;;;;;18.42;7.13;;;;;;;4.08;100.00;102365.94;4877608;29;20056;-77
2022/11/27 03:27:38;;;;;;;16.48;7.45;;;;;;;4.08;100.00;102355.50;4864541;29;20052;-78
2022/11/27 03:30:09;;;;;;;20.05;7.63;;;;;;;4.10;100.00;102357.41;4892659;29;20044;-78
2022/11/27 03:32:37;;;;;;;18.45;7.32;;;;;;;4.12;100.00;102352.28;4909035;29;20045;-78
2022/11/27 03:35:11;;;;;;;23.25;8.23;;;;;;;4.14;100.00;102363.69;4892668;29;20052;-77
2022/11/27 03:37:39;;;;;;;16.88;7.05;;;;;;;4.15;100.00;102352.44;4893225;29;20052;-79
2022/11/27 03:40:08;;;;;;;19.92;7.78;;;;;;;4.17;100.00;102352.50;4893422;29;20045;-78
2022/11/27 03:43:12;;;;;;;12.75;6.82;;;;;;;4.18;100.00;102349.06;4866432;29;20464;-77
2022/11/27 03:46:01;;;;;;;17.15;6.82;;;;;;;4.19;100.00;102333.50;4887023;29;20060;-79
2022/11/27 03:48:37;;;;;;;16.50;6.97;;;;;;;4.21;100.00;102330.97;4890326;29;20052;-78
2022/11/27 03:51:34;;;;;;;22.83;8.68;;;;;;;4.22;100.00;102325.84;4887607;29;20419;-78
2022/11/27 03:54:09;;;;;;;16.02;6.82;;;;;;;4.23;100.00;102337.19;4908474;29;20045;-77
2022/11/27 03:56:44;;;;;;;19.85;7.15;;;;;;;4.24;100.00;102334.66;4898042;29;20045;-79
2022/11/27 03:59:19;;;;;;;13.98;6.85;;;;;;;4.26;100.00;102325.19;4870809;29;20067;-77
2022/11/27 04:01:48;;;;;;;10.15;6.13;;;;;;;4.27;100.00;102326.06;4902316;29;20048;-78
2022/11/27 04:04:16;;;;;;;20.13;7.25;;;;;;;4.27;100.00;102316.56;4892396;29;20041;-77
2022/11/27 04:06:45;;;;;;;16.55;6.63;;;;;;;4.28;100.00;102318.34;4886154;29;20060;-78
2022/11/27 04:09:13;;;;;;;14.88;6.45;;;;;;;4.29;100.00;102308.78;4881908;29;20061;-78
2022/11/27 04:11:42;;;;;;;19.85;6.88;;;;;;;4.29;100.00;102303.56;4867188;29;20055;-78
2022/11/27 04:14:10;;;;;;;18.60;6.78;;;;;;;4.30;100.00;102306.25;4876026;29;20059;-78
2022/11/27 04:16:39;;;;;;;19.17;6.03;;;;;;;4.32;100.00;102302.84;4894828;29;20052;-78
2022/11/27 04:19:08;;;;;;;16.52;6.25;;;;;;;4.32;100.00;102298.50;4895437;29;20052;-78
2022/11/27 04:21:38;;;;;;;17.10;6.13;;;;;;;4.33;100.00;102295.09;4889319;29;20052;-79
2022/11/27 04:24:06;;;;;;;12.52;5.70;;;;;;;4.33;100.00;102295.09;4895925;29;20051;-78
2022/11/27 04:26:35;;;;;;;14.93;6.40;;;;;;;4.34;100.00;102290.78;4896070;29;20044;-79
2022/11/27 04:29:03;;;;;;;17.67;6.90;;;;;;;4.35;100.00;102287.31;4897808;29;20537;-78
2022/11/27 04:31:31;;;;;;;10.18;4.95;;;;;;;4.36;100.00;102283.91;4853107;29;20056;-78
2022/11/27 04:34:00;;;;;;;12.52;5.28;;;;;;;4.37;100.00;102276.16;4895734;29;20045;-79
2022/11/27 04:36:28;;;;;;;12.70;5.88;;;;;;;4.39;100.00;102276.25;4885933;29;20055;-79
2022/11/27 04:38:59;;;;;;;12.32;5.78;;;;;;;4.39;100.00;102266.69;4896284;29;20048;-78
2022/11/27 04:41:28;;;;;;;16.52;6.28;;;;;;;4.41;100.00;102269.41;4864478;29;20056;-78
2022/11/27 04:43:56;;;;;;;10.80;4.80;;;;;;;4.41;100.00;102270.28;4898001;29;20045;-77
2022/11/27 04:46:25;;;;;;;17.20;6.05;;;;;;;4.41;100.00;102270.28;4851555;29;20064;-79
2022/11/27 04:48:53;;;;;;;16.35;5.20;;;;;;;4.41;100.00;102277.22;4898083;29;20536;-79
2022/11/27 04:51:22;;;;;;;10.30;5.55;;;;;;;4.42;100.00;102279.00;4886118;29;20052;-78
2022/11/27 04:53:50;;;;;;;13.68;5.57;;;;;;;4.43;100.00;102278.19;4896178;29;20049;-78
2022/11/27 04:56:19;;;;;;;12.85;5.53;;;;;;;4.44;100.00;102285.19;4893403;29;20494;-79
2022/11/27 04:58:47;;;;;;;17.38;6.05;;;;;;;4.44;100.00;102293.03;4895754;29;20545;-79
2022/11/27 05:01:15;;;;;;;13.00;5.15;;;;;;;4.44;100.00;102300.84;4879089;29;20049;-78
2022/11/27 05:03:46;;;;;;;13.30;5.80;;;;;;;4.45;100.00;102303.56;4883804;29;20040;-78
2022/11/27 05:06:15;;;;;;;13.27;5.53;;;;;;;4.44;100.00;102300.84;4889212;29;20075;-78
2022/11/27 05:08:45;;;;;;;17.40;5.97;;;;;;;4.44;100.00;102304.38;4873372;29;20049;-79
2022/11/27 05:11:16;;;;;;;12.55;5.28;;;;;;;4.46;100.00;102312.25;4895446;29;20048;-78
2022/11/27 05:13:44;;;;;;;17.27;5.93;;;;;;;4.47;100.00;102311.47;4895773;29;20048;-79
2022/11/27 05:16:12;;;;;;;13.98;4.90;;;;;;;4.46;100.00;102296.59;4894232;29;20049;-78
2022/11/27 05:18:41;;;;;;;14.48;4.97;;;;;;;4.47;100.00;102287.97;4870305;29;20041;-79
2022/11/27 05:21:09;;;;;;;9.73;4.80;;;;;;;4.47;100.00;102287.97;4880094;29;20040;-79
2022/11/27 05:23:37;;;;;;;13.63;5.22;;;;;;;4.48;100.00;102284.56;4883588;29;20041;-78
2022/11/27 05:26:06;;;;;;;13.07;5.45;;;;;;;4.47;100.00;102274.91;4895113;29;20044;-78
2022/11/27 05:28:34;;;;;;;10.95;4.68;;;;;;;4.47;100.00;102267.97;4894532;29;20053;-77
2022/11/27 05:31:02;;;;;;;10.63;5.03;;;;;;;4.48;100.00;102267.19;4891860;29;20049;-79
2022/11/27 05:33:31;;;;;;;11.27;4.72;;;;;;;4.47;100.00;102273.19;4850872;29;20393;-79
2022/11/27 05:35:59;;;;;;;13.40;5.28;;;;;;;4.47;100.00;102267.09;4898151;29;20060;-78
2022/11/27 05:38:28;;;;;;;15.48;5.28;;;;;;;4.44;100.00;102262.63;4889125;29;20059;-78
2022/11/27 05:40:56;;;;;;;13.50;6.22;;;;;;;4.45;100.00;102261.78;4891526;29;20056;-77
2022/11/27 05:43:24;;;;;;;13.82;5.70;;;;;;;4.45;100.00;102266.13;4894577;29;20041;-81
2022/11/27 05:45:53;;;;;;;16.20;7.07;;;;;;;4.45;100.00;102266.13;4896423;29;20051;-78
2022/11/27 05:48:21;;;;;;;15.93;5.15;;;;;;;4.43;100.00;102249.47;4868675;29;20052;-78
2022/11/27 05:50:50;;;;;;;11.73;5.07;;;;;;;4.43;100.00;102252.09;4895775;29;20048;-78
2022/11/27 05:53:18;;;;;;;14.30;4.70;;;;;;;4.42;100.00;102252.91;4885403;29;20044;-77
2022/11/27 05:55:46;;;;;;;12.70;4.65;;;;;;;4.41;100.00;102243.28;4887319;29;20081;-78
2022/11/27 05:58:15;;;;;;;10.65;4.45;;;;;;;4.41;100.00;102240.69;4892074;29;20059;-77
2022/11/27 06:00:44;;;;;;;12.73;5.20;;;;;;;4.39;100.00;102231.88;4898314;29;20061;-78
2022/11/27 06:03:13;;;;;;;14.27;4.70;;;;;;;4.37;100.00;102228.31;4894997;29;20048;-78
2022/11/27 06:05:42;;;;;;;22.58;5.75;;;;;;;4.35;100.00;102225.59;4866230;29;20500;-78
2022/11/27 06:08:10;;;;;;;15.10;4.93;;;;;;;4.34;100.00;102231.63;4874712;29;20053;-78
2022/11/27 06:10:39;;;;;;;10.15;4.53;;;;;;;4.32;100.00;102237.59;4885363;29;20044;-78
2022/11/27 06:13:07;;;;;;;18.63;5.82;;;;;;;4.30;100.00;102227.97;4895389;29;20044;-78
2022/11/27 06:15:37;;;;;;;12.18;4.97;;;;;;;4.30;100.00;102227.97;4895866;29;20044;-78
2022/11/27 06:18:06;;;;;;;11.82;5.32;;;;;;;4.29;100.00;102220.97;4896051;29;20059;-78
2022/11/27 06:20:35;;;;;;;9.40;4.85;;;;;;;4.27;100.00;102217.41;4867656;29;20060;-77
2022/11/27 06:23:10;;;;;;;9.98;4.43;;;;;;;4.26;100.00;102215.59;4892370;29;20052;-80
2022/11/27 06:25:39;;;;;;;12.55;4.88;;;;;;;4.25;100.00;102215.50;4869985;29;20399;-78
2022/11/27 06:28:07;;;;;;;16.25;4.65;;;;;;;4.24;100.00;102227.66;4888704;29;20040;-80
2022/11/27 06:30:36;;;;;;;13.85;4.78;;;;;;;4.22;100.00;102221.47;4895099;29;20540;-81
2022/11/27 06:33:05;;;;;;;8.25;4.10;;;;;;;4.21;100.00;102222.28;4893977;29;20049;-80
2022/11/27 06:35:33;;;;;;;8.95;4.63;;;;;;;4.18;100.00;102216.91;4850019;29;20056;-80
2022/11/27 06:38:02;;;;;;;11.93;4.90;;;;;;;4.15;100.00;102214.16;4895665;29;20044;-78
2022/11/27 06:40:30;;;;;;;7.43;4.57;;;;;;;4.15;100.00;102216.75;4877763;29;20469;-80
2022/11/27 06:42:58;;;;;;;11.18;4.80;;;;;;;4.15;100.00;102221.09;4884216;29;20048;-79
2022/11/27 06:45:27;;;;;;;10.02;4.57;;;;;;;4.14;100.00;102224.50;4894747;29;20080;-79
2022/11/27 06:47:55;;;;;;;10.88;5.05;;;;;;;4.12;100.00;102216.63;4896914;29;20045;-80
2022/11/27 06:50:23;;;;;;;10.93;5.60;;;;;;;4.10;100.00;102213.91;4864726;29;20053;-80
2022/11/27 06:52:52;;;;;;;8.32;4.97;;;;;;;4.11;100.00;102225.25;4897692;29;20060;-80
2022/11/27 06:55:20;;;;;;;14.32;5.85;;;;;;;4.09;100.00;102213.84;4891849;29;20051;-80
2022/11/27 06:57:50;;;;;;;14.32;5.93;;;;;;;4.09;100.00;102206.91;4876910;29;20056;-79
2022/11/27 07:00:19;;;;;;;11.80;5.35;;;;;;;4.10;100.00;102198.28;4906858;29;20053;-79
2022/11/27 07:02:52;;;;;;;7.90;4.88;;;;;;;4.09;100.00;102191.25;4895711;29;20044;-79
2022/11/27 07:05:23;;;;;;;12.10;5.20;;;;;;;4.12;100.00;102203.56;4894953;29;20064;-79
2022/11/27 07:07:51;;;;;;;8.70;4.68;;;;;;;4.12;100.00;102203.56;4883197;29;20391;-79
2022/11/27 07:10:19;;;;;;;9.27;4.88;;;;;;;4.14;100.00;102191.50;4893394;29;20056;-80
2022/11/27 07:12:48;;;;;;;9.10;4.55;;;;;;;4.15;100.00;102189.78;4870316;29;20037;-80
2022/11/27 07:15:16;;;;;;;10.23;5.05;;;;;;;4.15;100.00;102197.59;4892850;29;20048;-80
2022/11/27 07:17:45;;;;;;;8.50;5.13;;;;;;;4.17;100.00;102196.84;4894213;29;20067;-80
2022/11/27 07:20:13;;;;;;;12.55;5.63;;;;;;;4.19;100.00;102205.66;4892322;29;20053;-78
2022/11/27 07:22:41;;;;;;;9.73;5.00;;;;;;;4.19;100.00;102197.81;4869995;29;20510;-78
2022/11/27 07:25:10;;;;;;;10.00;5.25;;;;;;;4.20;100.00;102202.25;4898270;29;20055;-78
2022/11/27 07:27:38;;;;;;;12.23;6.00;;;;;;;4.22;100.00;102213.66;4895542;29;20392;-78
2022/11/27 07:30:07;;;;;;;14.85;5.03;;;;;;;4.24;100.00;102208.50;4891366;29;20052;-80
2022/11/27 07:32:35;;;;;;;10.82;5.00;;;;;;;4.23;100.00;102207.59;4883445;29;20490;-80
2022/11/27 07:35:04;;;;;;;9.20;4.55;;;;;;;4.24;100.00;102201.56;4897980;29;20154;-78
2022/11/27 07:37:33;;;;;;;11.20;4.55;;;;;;;4.25;100.00;102195.53;4871007;29;20048;-80
2022/11/27 07:40:01;;;;;;;14.15;5.15;;;;;;;4.25;100.00;102195.53;4897962;29;20053;-80
2022/11/27 07:42:30;;;;;;;8.80;5.05;;;;;;;4.27;100.00;102193.00;4880418;29;20056;-80
2022/11/27 07:45:08;;;;;;;10.55;4.35;;;;;;;4.27;100.00;102187.78;4878312;29;20067;-77
2022/11/27 07:47:36;;;;;;;11.23;5.07;;;;;;;4.29;100.00;102188.75;4898337;29;20060;-79
2022/11/27 07:50:07;;;;;;;11.60;5.07;;;;;;;4.29;100.00;102174.00;4896108;29;20041;-80
2022/11/27 07:52:36;;;;;;;14.18;5.40;;;;;;;4.30;100.00;102175.78;4868593;29;20059;-80
2022/11/27 07:55:09;;;;;;;12.57;4.97;;;;;;;4.32;100.00;102172.38;4896414;29;20044;-79
2022/11/27 07:57:38;;;;;;;12.48;5.88;;;;;;;4.34;100.00;102175.94;4898327;29;20044;-80
2022/11/27 08:00:07;;;;;;;14.10;5.50;;;;;;;4.34;100.00;102161.16;4877877;29;20059;-78
2022/11/27 08:02:35;;;;;;;15.55;5.90;;;;;;;4.36;100.00;102158.63;4895309;29;20059;-80
2022/11/27 08:05:04;;;;;;;12.05;5.78;;;;;;;4.37;100.00;102150.00;4881885;29;20043;-80
2022/11/27 08:07:40;;;;;;;13.80;5.38;;;;;;;4.39;100.00;102143.16;4871346;29;20048;-78
2022/11/27 08:10:08;;;;;;;8.65;5.07;;;;;;;4.39;100.00;102137.94;4897352;29;20832;-77
2022/11/27 08:12:37;;;;;;;10.43;5.40;;;;;;;4.41;100.00;102138.91;4905612;29;20143;-79
2022/11/27 08:15:06;;;;;;;8.27;4.57;;;;;;;4.43;100.00;102142.47;4876800;29;20040;-79
2022/11/27 08:17:35;;;;;;;14.93;5.60;;;;;;;4.45;100.00;102133.00;4897848;29;20055;-79
2022/11/27 08:20:05;;;;;;;6.88;4.40;;;;;;;4.45;100.00;102123.44;4891766;29;20052;-80
2022/11/27 08:22:34;;;;;;;8.93;4.90;;;;;;;4.48;100.00;102130.53;4879106;29;20384;-79
2022/11/27 08:25:02;;;;;;;6.85;4.88;;;;;;;4.51;100.00;102130.66;4888409;29;20056;-78
2022/11/27 08:27:32;;;;;;;10.95;4.90;;;;;;;4.51;100.00;102146.34;4895798;29;20045;-80
2022/11/27 08:30:02;;;;;;;6.82;3.78;;;;;;;4.52;100.00;102135.09;4902535;29;20924;-80
2022/11/27 08:32:31;;;;;;;9.70;5.28;;;;;;;4.54;100.00;102145.56;4910044;29;20051;-80
2022/11/27 08:35:01;;;;;;;9.57;5.30;;;;;;;4.56;100.00;102152.69;4895981;29;20546;-80
2022/11/27 08:37:30;;;;;;;10.25;6.32;;;;;;;4.57;100.00;102148.34;4877859;29;20056;-79
2022/11/27 08:39:58;;;;;;;9.40;4.90;;;;;;;4.59;100.00;102159.75;4876558;29;20063;-77
2022/11/27 08:42:26;;;;;;;11.60;5.00;;;;;;;4.60;100.00;102148.50;4882382;29;20063;-80
2022/11/27 08:44:55;;;;;;;10.50;5.03;;;;;;;4.61;100.00;102159.03;4885910;29;20052;-81
2022/11/27 08:47:23;;;;;;;8.05;4.80;;;;;;;4.63;100.00;102165.22;4898450;29;20498;-78
2022/11/27 08:49:52;;;;;;;9.27;5.43;;;;;;;4.61;100.00;102166.88;4891189;29;20059;-78
2022/11/27 08:52:20;;;;;;;10.65;5.60;;;;;;;4.62;100.00;102158.19;4897596;29;20043;-79
2022/11/27 08:54:50;;;;;;;8.32;4.18;;;;;;;4.62;100.00;102150.38;4856363;29;20138;-79
2022/11/27 08:57:25;;;;;;;9.18;4.28;;;;;;;4.63;100.00;102162.63;4908034;29;20041;-77
2022/11/27 08:59:53;;;;;;;6.95;4.68;;;;;;;4.64;100.00;102160.88;4890981;29;20564;-78
2022/11/27 09:02:22;;;;;;;10.32;5.03;;;;;;;4.66;100.00;102160.13;4878493;29;20044;-77
2022/11/27 09:04:50;;;;;;;9.52;5.40;;;;;;;4.66;100.00;102165.34;4895978;29;20056;-78
2022/11/27 09:07:19;;;;;;;9.60;5.03;;;;;;;4.67;100.00;102161.06;4897691;29;20063;-77
2022/11/27 09:09:47;;;;;;;7.57;4.65;;;;;;;4.68;100.00;102158.47;4873024;29;20067;-78
2022/11/27 09:12:15;;;;;;;15.70;6.20;;;;;;;4.68;100.00;102152.38;4906678;29;20055;-77
2022/11/27 09:14:44;;;;;;;12.55;5.20;;;;;;;4.68;100.00;102145.44;4865715;29;20060;-78
2022/11/27 09:17:16;;;;;;;9.50;5.32;;;;;;;4.67;100.00;102148.88;4896265;29;20051;-77
2022/11/27 09:19:44;;;;;;;10.95;5.05;;;;;;;4.67;100.00;102148.88;4885195;29;20060;-79
2022/11/27 09:22:12;;;;;;;8.48;5.00;;;;;;;4.68;100.00;102152.38;4906840;29;20047;-78
2022/11/27 09:24:41;;;;;;;10.90;5.10;;;;;;;4.69;100.00;102142.00;4858387;29;20122;-78
2022/11/27 09:27:10;;;;;;;9.02;4.85;;;;;;;4.69;100.00;102147.22;4902540;29;20056;-78
2022/11/27 09:29:38;;;;;;;9.27;4.50;;;;;;;4.71;100.00;102146.38;4897693;29;20052;-78
2022/11/27 09:32:07;;;;;;;12.80;5.38;;;;;;;4.73;100.00;102139.56;4924271;29;20056;-77
2022/11/27 09:34:35;;;;;;;12.07;5.30;;;;;;;4.74;100.00;102146.56;4900944;29;20044;-79
2022/11/27 09:37:05;;;;;;;7.53;4.47;;;;;;;4.76;100.00;102134.47;4923010;29;20412;-79
2022/11/27 09:39:34;;;;;;;10.75;5.30;;;;;;;4.78;100.00;102138.03;4866490;29;20028;-79
2022/11/27 09:42:05;;;;;;;11.15;4.82;;;;;;;4.81;100.00;102144.31;4890714;29;20048;-79
2022/11/27 09:44:47;;;;;;;7.70;5.28;;;;;;;4.82;100.00;102146.09;4895980;29;20053;-78
2022/11/27 09:47:34;;;;;;;10.20;5.72;;;;;;;4.85;100.00;102151.47;4888659;29;20055;-78
2022/11/27 09:50:29;;;;;;;7.88;5.82;;;;;;;4.89;100.00;102147.28;4902524;29;20045;-79
2022/11/27 09:53:10;;;;;;;8.43;5.22;;;;;;;4.91;100.00;102148.25;4894778;29;20526;-79
2022/11/27 09:55:43;;;;;;;11.90;5.07;;;;;;;4.93;100.00;102149.19;4873365;29;20048;-78
2022/11/27 09:58:35;;;;;;;11.80;5.80;;;;;;;4.94;100.00;102152.72;4908762;29;20052;-79
2022/11/27 10:01:12;;;;;;;9.90;5.10;;;;;;;4.96;100.00;102154.59;4902051;29;20052;-79
2022/11/27 10:03:42;;;;;;;12.00;5.03;;;;;;;4.95;100.00;102155.38;4879688;29;20063;-79
2022/11/27 10:06:14;;;;;;;8.50;5.50;;;;;;;4.96;100.00;102151.97;4907481;29;20061;-78
2022/11/27 10:08:56;;;;;;;7.63;5.13;;;;;;;4.98;100.00;102159.88;4895080;29;20048;-78
2022/11/27 10:11:41;;;;;;;15.60;6.07;;;;;;;4.99;100.00;102149.50;4872165;29;20043;-78
2022/11/27 10:14:25;;;;;;;12.07;5.78;;;;;;;4.99;100.00;102144.28;4896900;29;20510;-78
2022/11/27 10:17:32;;;;;;;10.68;5.90;;;;;;;4.98;100.00;102139.00;4878095;29;20048;-78
2022/11/27 10:20:15;;;;;;;11.95;6.13;;;;;;;4.96;100.00;102145.88;4875423;29;20048;-78
2022/11/27 10:23:23;;;;;;;12.35;6.43;;;;;;;4.96;100.00;102138.91;4901828;29;20053;-79
2022/11/27 10:26:02;;;;;;;12.35;5.43;;;;;;;4.96;100.00;102141.53;4896455;29;20052;-77
2022/11/27 10:28:31;;;;;;;11.73;6.07;;;;;;;4.97;100.00;102126.72;4885642;29;20761;-78
2022/11/27 10:31:13;;;;;;;11.63;5.82;;;;;;;4.96;100.00;102128.47;4900253;29;20427;-79
2022/11/27 10:33:50;;;;;;;10.27;5.88;;;;;;;4.96;100.00;102133.69;4878013;29;20059;-79
2022/11/27 10:36:29;;;;;;;9.25;5.65;;;;;;;4.93;100.00;102120.47;4870232;29;20041;-77
2022/11/27 10:39:00;;;;;;;11.50;5.55;;;;;;;4.93;100.00;102124.81;4875607;29;20045;-79
2022/11/27 10:42:07;;;;;;;12.13;6.18;;;;;;;4.91;100.00;102119.50;4880954;29;20059;-77
2022/11/27 10:44:53;;;;;;;10.50;5.78;;;;;;;4.91;100.00;102114.28;4899347;29;20063;-77
2022/11/27 10:47:24;;;;;;;8.85;6.00;;;;;;;4.90;100.00;102102.06;4917058;29;20044;-80
2022/11/27 10:49:58;;;;;;;10.70;5.55;;;;;;;4.90;100.00;102102.06;4891708;29;20068;-79
2022/11/27 10:52:26;;;;;;;9.35;5.10;;;;;;;4.90;100.00;102086.38;4893194;29;20044;-79
2022/11/27 10:55:00;;;;;;;14.32;6.68;;;;;;;4.90;100.00;102081.16;4897663;29;20051;-78
2022/11/27 10:57:56;;;;;;;18.73;6.68;;;;;;;4.88;100.00;102073.25;4898365;29;20056;-79
2022/11/27 11:00:26;;;;;;;8.80;6.05;;;;;;;4.86;100.00;102064.47;4878922;29;20048;-79
2022/11/27 11:03:04;;;;;;;10.05;5.97;;;;;;;4.85;100.00;102067.88;4897381;29;20068;-79
2022/11/27 11:05:33;;;;;;;12.80;6.30;;;;;;;4.85;100.00;102067.88;4893324;29;20055;-79
2022/11/27 11:08:24;;;;;;;12.82;6.25;;;;;;;4.84;100.00;102055.66;4887216;29;20049;-78
2022/11/27 11:10:58;;;;;;;10.20;6.10;;;;;;;4.85;100.00;102059.16;4893834;29;20053;-79
2022/11/27 11:13:28;;;;;;;13.73;6.85;;;;;;;4.85;100.00;102052.19;4867322;29;20060;-79
2022/11/27 11:16:02;;;;;;;14.82;6.57;;;;;;;4.85;100.00;102046.09;4907479;29;20056;-78
2022/11/27 11:18:34;;;;;;;12.00;7.45;;;;;;;4.85;100.00;102046.09;4893606;29;20060;-79
2022/11/27 11:21:06;;;;;;;13.48;6.32;;;;;;;4.86;100.00;102042.69;4881487;29;20041;-78
2022/11/27 11:23:37;;;;;;;12.02;5.50;;;;;;;4.86;100.00;102032.22;4892332;29;20040;-80
2022/11/27 11:26:22;;;;;;;13.32;6.00;;;;;;;4.89;100.00;102032.34;4902464;29;20044;-79
2022/11/27 11:28:54;;;;;;;11.65;6.40;;;;;;;4.91;100.00;102028.09;4891870;29;20045;-79
2022/11/27 11:31:30;;;;;;;10.00;5.88;;;;;;;4.91;100.00;102017.63;4873993;29;20056;-79
2022/11/27 11:34:02;;;;;;;11.68;5.75;;;;;;;4.93;100.00;102015.09;4889619;29;20056;-79
2022/11/27 11:36:31;;;;;;;8.63;5.72;;;;;;;4.95;100.00;102010.84;4889150;29;20084;-79
2022/11/27 11:38:59;;;;;;;7.93;5.68;;;;;;;4.94;100.00;102009.06;4883141;29;20071;-79
2022/11/27 11:41:37;;;;;;;12.27;6.78;;;;;;;4.95;100.00;101996.03;4889788;29;20056;-79
2022/11/27 11:44:05;;;;;;;11.90;6.30;;;;;;;4.96;100.00;102003.06;4891250;29;20048;-79